sensor_id;sensor_type;location;lat;lon;timestamp;pressure;altitude;pressure_sealevel;temperature;humidity
56270;BME280;42176;43.240;27.880;2023-07-24T00:01:43;100258.25;;;22.99;100.00
56270;BME280;42176;43.240;27.880;2023-07-24T00:03:44;100252.22;;;22.82;100.00
56270;BME280;42176;43.240;27.880;2023-07-24T00:05:45;100261.50;;;22.78;100.00
56270;BME280;42176;43.240;27.880;2023-07-24T00:07:45;100253.94;;;22.83;100.00
56270;BME280;42176;43.240;27.880;2023-07-24T00:09:46;100249.59;;;22.93;100.00
56270;BME280;42176;43.240;27.880;2023-07-24T00:11:46;100247.44;;;22.99;100.00
56270;BME280;42176;43.240;27.880;2023-07-24T00:13:47;100244.19;;;22.93;100.00
56270;BME280;42176;43.240;27.880;2023-07-24T00:15:47;100245.91;;;22.94;100.00
56270;BME280;42176;43.240;27.880;2023-07-24T00:17:48;100237.47;;;22.99;100.00
56270;BME280;42176;43.240;27.880;2023-07-24T00:19:48;100246.97;;;23.05;100.00
56270;BME280;42176;43.240;27.880;2023-07-24T00:21:49;100243.38;;;23.17;100.00
56270;BME280;42176;43.240;27.880;2023-07-24T00:23:49;100242.38;;;23.31;100.00
56270;BME280;42176;43.240;27.880;2023-07-24T00:25:50;100242.28;;;23.33;100.00
56270;BME280;42176;43.240;27.880;2023-07-24T00:27:50;100242.72;;;23.26;100.00
56270;BME280;42176;43.240;27.880;2023-07-24T00:29:51;100240.47;;;23.20;100.00
56270;BME280;42176;43.240;27.880;2023-07-24T00:31:51;100247.50;;;23.10;100.00
56270;BME280;42176;43.240;27.880;2023-07-24T00:33:51;100245.91;;;23.07;100.00
56270;BME280;42176;43.240;27.880;2023-07-24T00:35:56;100248.53;;;22.96;100.00
56270;BME280;42176;43.240;27.880;2023-07-24T00:37:57;100237.28;;;22.89;100.00
56270;BME280;42176;43.240;27.880;2023-07-24T00:39:58;100241.81;;;23.02;100.00
56270;BME280;42176;43.240;27.880;2023-07-24T00:41:58;100246.31;;;23.14;100.00
56270;BME280;42176;43.240;27.880;2023-07-24T00:43:58;100231.38;;;23.21;100.00
56270;BME280;42176;43.240;27.880;2023-07-24T00:45:59;100235.66;;;23.37;100.00
56270;BME280;42176;43.240;27.880;2023-07-24T00:48:00;100231.81;;;23.52;100.00
56270;BME280;42176;43.240;27.880;2023-07-24T00:50:00;100233.47;;;23.42;100.00
56270;BME280;42176;43.240;27.880;2023-07-24T00:52:01;100238.94;;;23.29;100.00
56270;BME280;42176;43.240;27.880;2023-07-24T00:54:02;100234.75;;;23.12;100.00
56270;BME280;42176;43.240;27.880;2023-07-24T00:56:04;100240.50;;;22.94;100.00
56270;BME280;42176;43.240;27.880;2023-07-24T00:58:05;100240.84;;;22.77;100.00
56270;BME280;42176;43.240;27.880;2023-07-24T01:00:06;100241.19;;;22.85;100.00
56270;BME280;42176;43.240;27.880;2023-07-24T01:02:08;100238.38;;;22.87;100.00
56270;BME280;42176;43.240;27.880;2023-07-24T01:04:08;100238.28;;;22.88;100.00
56270;BME280;42176;43.240;27.880;2023-07-24T01:06:09;100243.78;;;22.87;100.00
56270;BME280;42176;43.240;27.880;2023-07-24T01:08:10;100236.13;;;22.80;100.00
56270;BME280;42176;43.240;27.880;2023-07-24T01:10:10;100235.56;;;22.88;100.00
56270;BME280;42176;43.240;27.880;2023-07-24T01:12:20;100236.88;;;22.70;100.00
56270;BME280;42176;43.240;27.880;2023-07-24T01:14:25;100229.13;;;22.52;100.00
56270;BME280;42176;43.240;27.880;2023-07-24T01:16:33;100230.16;;;22.36;100.00
56270;BME280;42176;43.240;27.880;2023-07-24T01:18:38;100230.38;;;22.33;100.00
56270;BME280;42176;43.240;27.880;2023-07-24T01:20:54;100225.00;;;22.46;100.00
56270;BME280;42176;43.240;27.880;2023-07-24T01:25:28;100234.53;;;22.52;100.00
56270;BME280;42176;43.240;27.880;2023-07-24T01:27:32;100224.78;;;22.62;100.00
56270;BME280;42176;43.240;27.880;2023-07-24T01:29:32;100230.50;;;22.71;100.00
56270;BME280;42176;43.240;27.880;2023-07-24T01:31:32;100221.31;;;22.73;100.00
56270;BME280;42176;43.240;27.880;2023-07-24T01:33:33;100227.34;;;22.77;100.00
56270;BME280;42176;43.240;27.880;2023-07-24T01:35:36;100232.31;;;22.83;100.00
56270;BME280;42176;43.240;27.880;2023-07-24T01:37:38;100225.97;;;22.71;100.00
56270;BME280;42176;43.240;27.880;2023-07-24T01:39:40;100226.09;;;22.70;100.00
56270;BME280;42176;43.240;27.880;2023-07-24T01:41:42;100224.88;;;22.74;100.00
56270;BME280;42176;43.240;27.880;2023-07-24T01:43:43;100229.97;;;22.78;100.00
56270;BME280;42176;43.240;27.880;2023-07-24T01:45:43;100231.66;;;22.92;100.00
56270;BME280;42176;43.240;27.880;2023-07-24T01:47:44;100229.88;;;23.17;100.00
56270;BME280;42176;43.240;27.880;2023-07-24T01:49:44;100230.56;;;23.45;100.00
56270;BME280;42176;43.240;27.880;2023-07-24T01:51:45;100227.88;;;23.32;100.00
56270;BME280;42176;43.240;27.880;2023-07-24T01:53:45;100228.91;;;23.18;100.00
56270;BME280;42176;43.240;27.880;2023-07-24T01:55:45;100231.22;;;22.99;100.00
56270;BME280;42176;43.240;27.880;2023-07-24T01:57:46;100231.03;;;22.76;100.00
56270;BME280;42176;43.240;27.880;2023-07-24T01:59:46;100226.41;;;22.52;100.00
56270;BME280;42176;43.240;27.880;2023-07-24T02:01:48;100195.38;;;22.19;100.00
56270;BME280;42176;43.240;27.880;2023-07-24T02:03:49;100228.84;;;22.29;100.00
56270;BME280;42176;43.240;27.880;2023-07-24T02:05:50;100227.56;;;22.22;100.00
56270;BME280;42176;43.240;27.880;2023-07-24T02:07:51;100237.91;;;22.28;100.00
56270;BME280;42176;43.240;27.880;2023-07-24T02:09:52;100238.97;;;22.13;100.00
56270;BME280;42176;43.240;27.880;2023-07-24T02:11:52;100240.59;;;22.02;100.00
56270;BME280;42176;43.240;27.880;2023-07-24T02:13:52;100242.25;;;22.18;100.00
56270;BME280;42176;43.240;27.880;2023-07-24T02:15:53;100247.44;;;22.21;100.00
56270;BME280;42176;43.240;27.880;2023-07-24T02:17:54;100245.94;;;22.30;100.00
56270;BME280;42176;43.240;27.880;2023-07-24T02:19:54;100232.22;;;22.33;100.00
56270;BME280;42176;43.240;27.880;2023-07-24T02:21:54;100247.69;;;22.44;100.00
56270;BME280;42176;43.240;27.880;2023-07-24T02:23:55;100256.53;;;22.46;100.00
56270;BME280;42176;43.240;27.880;2023-07-24T02:25:55;100257.59;;;22.30;100.00
56270;BME280;42176;43.240;27.880;2023-07-24T02:27:56;100263.63;;;22.21;100.00
56270;BME280;42176;43.240;27.880;2023-07-24T02:29:56;100269.69;;;22.38;100.00
56270;BME280;42176;43.240;27.880;2023-07-24T02:31:57;100260.44;;;22.55;100.00
56270;BME280;42176;43.240;27.880;2023-07-24T02:33:58;100264.31;;;22.63;100.00
56270;BME280;42176;43.240;27.880;2023-07-24T02:36:00;100255.47;;;22.61;100.00
56270;BME280;42176;43.240;27.880;2023-07-24T02:38:01;100263.31;;;22.90;100.00
56270;BME280;42176;43.240;27.880;2023-07-24T02:40:01;100258.88;;;22.89;100.00
56270;BME280;42176;43.240;27.880;2023-07-24T02:42:02;100261.72;;;22.75;100.00
56270;BME280;42176;43.240;27.880;2023-07-24T02:44:03;100250.28;;;22.58;100.00
56270;BME280;42176;43.240;27.880;2023-07-24T02:46:04;100259.03;;;22.49;100.00
56270;BME280;42176;43.240;27.880;2023-07-24T02:48:05;100250.44;;;22.29;100.00
56270;BME280;42176;43.240;27.880;2023-07-24T02:50:05;100247.84;;;22.15;100.00
56270;BME280;42176;43.240;27.880;2023-07-24T02:52:06;100247.16;;;21.98;100.00
56270;BME280;42176;43.240;27.880;2023-07-24T02:54:06;100216.47;;;21.73;100.00
56270;BME280;42176;43.240;27.880;2023-07-24T02:56:07;100250.56;;;21.74;100.00
56270;BME280;42176;43.240;27.880;2023-07-24T02:58:07;100249.03;;;21.70;100.00
56270;BME280;42176;43.240;27.880;2023-07-24T03:00:08;100247.09;;;21.72;100.00
56270;BME280;42176;43.240;27.880;2023-07-24T03:02:09;100243.88;;;21.80;100.00
56270;BME280;42176;43.240;27.880;2023-07-24T03:04:09;100232.97;;;21.82;100.00
56270;BME280;42176;43.240;27.880;2023-07-24T03:06:10;100233.94;;;21.81;100.00
56270;BME280;42176;43.240;27.880;2023-07-24T03:08:10;100240.63;;;21.75;100.00
56270;BME280;42176;43.240;27.880;2023-07-24T03:10:11;100242.78;;;21.70;100.00
56270;BME280;42176;43.240;27.880;2023-07-24T03:12:11;100236.06;;;21.63;100.00
56270;BME280;42176;43.240;27.880;2023-07-24T03:14:11;100232.09;;;21.68;100.00
56270;BME280;42176;43.240;27.880;2023-07-24T03:16:12;100230.53;;;21.79;100.00
56270;BME280;42176;43.240;27.880;2023-07-24T03:18:12;100236.44;;;21.84;100.00
56270;BME280;42176;43.240;27.880;2023-07-24T03:20:17;100224.38;;;21.89;100.00
56270;BME280;42176;43.240;27.880;2023-07-24T03:22:18;100237.25;;;22.12;100.00
56270;BME280;42176;43.240;27.880;2023-07-24T03:24:19;100235.22;;;22.28;100.00
56270;BME280;42176;43.240;27.880;2023-07-24T03:26:19;100237.44;;;22.49;100.00
56270;BME280;42176;43.240;27.880;2023-07-24T03:28:19;100225.41;;;22.79;100.00
56270;BME280;42176;43.240;27.880;2023-07-24T03:30:20;100232.72;;;23.03;100.00
56270;BME280;42176;43.240;27.880;2023-07-24T03:32:20;100230.94;;;23.27;100.00
56270;BME280;42176;43.240;27.880;2023-07-24T03:34:21;100239.91;;;23.52;100.00
56270;BME280;42176;43.240;27.880;2023-07-24T03:36:21;100231.91;;;23.75;100.00
56270;BME280;42176;43.240;27.880;2023-07-24T03:38:22;100228.38;;;24.10;100.00
56270;BME280;42176;43.240;27.880;2023-07-24T03:40:22;100240.56;;;24.86;100.00
56270;BME280;42176;43.240;27.880;2023-07-24T03:42:27;100229.88;;;25.51;99.72
56270;BME280;42176;43.240;27.880;2023-07-24T03:44:27;100234.84;;;26.11;92.98
56270;BME280;42176;43.240;27.880;2023-07-24T03:46:28;100231.97;;;26.65;87.94
56270;BME280;42176;43.240;27.880;2023-07-24T03:48:28;100239.50;;;27.13;82.51
56270;BME280;42176;43.240;27.880;2023-07-24T03:50:29;100247.19;;;27.59;79.31
56270;BME280;42176;43.240;27.880;2023-07-24T03:52:29;100232.44;;;27.91;76.46
56270;BME280;42176;43.240;27.880;2023-07-24T03:54:30;100240.75;;;28.19;73.72
56270;BME280;42176;43.240;27.880;2023-07-24T03:56:30;100243.00;;;28.43;71.11
56270;BME280;42176;43.240;27.880;2023-07-24T03:58:31;100244.16;;;28.40;72.31
56270;BME280;42176;43.240;27.880;2023-07-24T04:00:31;100256.44;;;28.64;71.47
56270;BME280;42176;43.240;27.880;2023-07-24T04:02:31;100229.13;;;28.84;69.13
56270;BME280;42176;43.240;27.880;2023-07-24T04:04:32;100262.75;;;29.30;67.71
56270;BME280;42176;43.240;27.880;2023-07-24T04:06:33;100261.84;;;29.68;65.15
56270;BME280;42176;43.240;27.880;2023-07-24T04:08:33;100266.63;;;30.02;63.09
56270;BME280;42176;43.240;27.880;2023-07-24T04:10:33;100271.22;;;30.01;61.94
56270;BME280;42176;43.240;27.880;2023-07-24T04:12:34;100272.22;;;30.18;61.13
56270;BME280;42176;43.240;27.880;2023-07-24T04:14:34;100272.97;;;30.29;60.44
56270;BME280;42176;43.240;27.880;2023-07-24T04:16:35;100266.44;;;29.67;63.45
56270;BME280;42176;43.240;27.880;2023-07-24T04:18:35;100270.97;;;29.58;65.07
56270;BME280;42176;43.240;27.880;2023-07-24T04:20:36;100274.88;;;29.74;64.94
56270;BME280;42176;43.240;27.880;2023-07-24T04:22:36;100271.25;;;30.28;62.67
56270;BME280;42176;43.240;27.880;2023-07-24T04:24:36;100272.06;;;30.64;61.00
56270;BME280;42176;43.240;27.880;2023-07-24T04:26:37;100275.78;;;30.90;59.47
56270;BME280;42176;43.240;27.880;2023-07-24T04:28:37;100270.84;;;31.28;57.41
56270;BME280;42176;43.240;27.880;2023-07-24T04:30:38;100249.34;;;31.50;56.37
56270;BME280;42176;43.240;27.880;2023-07-24T04:32:38;100277.09;;;31.63;55.90
56270;BME280;42176;43.240;27.880;2023-07-24T04:34:38;100268.63;;;32.08;54.15
56270;BME280;42176;43.240;27.880;2023-07-24T04:36:39;100278.91;;;32.39;52.74
56270;BME280;42176;43.240;27.880;2023-07-24T04:38:39;100279.19;;;32.69;51.82
56270;BME280;42176;43.240;27.880;2023-07-24T04:40:43;100274.88;;;32.91;49.75
56270;BME280;42176;43.240;27.880;2023-07-24T04:42:44;100269.88;;;32.94;48.64
56270;BME280;42176;43.240;27.880;2023-07-24T04:44:45;100273.31;;;32.97;48.71
56270;BME280;42176;43.240;27.880;2023-07-24T04:46:45;100278.66;;;33.30;48.36
56270;BME280;42176;43.240;27.880;2023-07-24T04:48:46;100273.50;;;33.66;48.11
56270;BME280;42176;43.240;27.880;2023-07-24T04:50:46;100278.78;;;33.99;46.97
56270;BME280;42176;43.240;27.880;2023-07-24T04:52:46;100280.47;;;34.24;46.13
56270;BME280;42176;43.240;27.880;2023-07-24T04:54:47;100275.03;;;34.54;45.18
56270;BME280;42176;43.240;27.880;2023-07-24T04:56:47;100271.47;;;34.98;43.70
56270;BME280;42176;43.240;27.880;2023-07-24T04:58:48;100267.19;;;35.11;42.51
56270;BME280;42176;43.240;27.880;2023-07-24T05:00:48;100265.22;;;35.41;42.48
56270;BME280;42176;43.240;27.880;2023-07-24T05:02:49;100261.91;;;35.46;42.69
56270;BME280;42176;43.240;27.880;2023-07-24T05:04:49;100276.56;;;35.31;43.20
56270;BME280;42176;43.240;27.880;2023-07-24T05:06:50;100278.97;;;35.56;42.94
56270;BME280;42176;43.240;27.880;2023-07-24T05:08:52;100279.03;;;35.26;43.67
56270;BME280;42176;43.240;27.880;2023-07-24T05:10:54;100283.59;;;34.89;43.90
56270;BME280;42176;43.240;27.880;2023-07-24T05:12:55;100288.63;;;35.15;43.99
56270;BME280;42176;43.240;27.880;2023-07-24T05:14:56;100280.53;;;35.44;42.74
56270;BME280;42176;43.240;27.880;2023-07-24T05:16:57;100289.28;;;35.32;43.00
56270;BME280;42176;43.240;27.880;2023-07-24T05:18:57;100296.03;;;35.45;42.42
56270;BME280;42176;43.240;27.880;2023-07-24T05:20:58;100300.88;;;35.79;41.59
56270;BME280;42176;43.240;27.880;2023-07-24T05:22:58;100295.19;;;35.29;42.85
56270;BME280;42176;43.240;27.880;2023-07-24T05:24:59;100292.03;;;35.47;42.51
56270;BME280;42176;43.240;27.880;2023-07-24T05:26:59;100288.31;;;35.55;42.54
56270;BME280;42176;43.240;27.880;2023-07-24T05:28:59;100291.19;;;35.69;42.17
56270;BME280;42176;43.240;27.880;2023-07-24T05:31:03;100283.38;;;36.09;40.67
56270;BME280;42176;43.240;27.880;2023-07-24T05:33:04;100286.47;;;35.84;41.26
56270;BME280;42176;43.240;27.880;2023-07-24T05:35:05;100288.94;;;35.72;41.52
56270;BME280;42176;43.240;27.880;2023-07-24T05:37:05;100282.16;;;35.75;41.03
56270;BME280;42176;43.240;27.880;2023-07-24T05:39:06;100275.38;;;35.41;41.18
56270;BME280;42176;43.240;27.880;2023-07-24T05:41:06;100283.81;;;35.69;41.62
56270;BME280;42176;43.240;27.880;2023-07-24T05:43:07;100274.25;;;36.37;39.34
56270;BME280;42176;43.240;27.880;2023-07-24T05:45:08;100279.63;;;36.73;38.85
56270;BME280;42176;43.240;27.880;2023-07-24T05:47:08;100274.56;;;36.84;38.46
56270;BME280;42176;43.240;27.880;2023-07-24T05:49:09;100267.41;;;36.54;38.93
56270;BME280;42176;43.240;27.880;2023-07-24T05:51:09;100273.31;;;36.80;38.49
56270;BME280;42176;43.240;27.880;2023-07-24T05:53:10;100276.63;;;37.03;38.34
56270;BME280;42176;43.240;27.880;2023-07-24T05:55:11;100273.84;;;37.45;37.28
56270;BME280;42176;43.240;27.880;2023-07-24T05:57:11;100268.59;;;37.64;36.86
56270;BME280;42176;43.240;27.880;2023-07-24T05:59:11;100272.00;;;37.66;36.42
56270;BME280;42176;43.240;27.880;2023-07-24T06:01:12;100278.44;;;37.93;36.80
56270;BME280;42176;43.240;27.880;2023-07-24T06:03:12;100284.44;;;38.11;35.58
56270;BME280;42176;43.240;27.880;2023-07-24T06:05:13;100274.22;;;38.51;34.35
56270;BME280;42176;43.240;27.880;2023-07-24T06:07:13;100274.19;;;38.65;34.37
56270;BME280;42176;43.240;27.880;2023-07-24T06:09:14;100271.22;;;38.53;34.88
56270;BME280;42176;43.240;27.880;2023-07-24T06:11:14;100268.22;;;38.48;34.78
56270;BME280;42176;43.240;27.880;2023-07-24T06:13:15;100279.50;;;38.60;34.63
56270;BME280;42176;43.240;27.880;2023-07-24T06:15:16;100266.75;;;38.45;34.85
56270;BME280;42176;43.240;27.880;2023-07-24T06:17:16;100267.81;;;38.31;34.99
56270;BME280;42176;43.240;27.880;2023-07-24T06:19:17;100266.13;;;38.43;34.92
56270;BME280;42176;43.240;27.880;2023-07-24T06:21:17;100272.06;;;38.27;35.34
56270;BME280;42176;43.240;27.880;2023-07-24T06:23:17;100272.28;;;37.98;35.13
56270;BME280;42176;43.240;27.880;2023-07-24T06:25:18;100268.19;;;37.67;36.28
56270;BME280;42176;43.240;27.880;2023-07-24T06:27:18;100269.72;;;37.90;35.24
56270;BME280;42176;43.240;27.880;2023-07-24T06:29:19;100265.16;;;37.48;35.64
56270;BME280;42176;43.240;27.880;2023-07-24T06:31:19;100266.09;;;37.21;36.00
56270;BME280;42176;43.240;27.880;2023-07-24T06:33:20;100248.19;;;37.72;35.11
56270;BME280;42176;43.240;27.880;2023-07-24T06:35:21;100263.16;;;38.38;34.33
56270;BME280;42176;43.240;27.880;2023-07-24T06:37:22;100254.53;;;38.80;33.08
56270;BME280;42176;43.240;27.880;2023-07-24T06:39:22;100254.53;;;38.87;31.30
56270;BME280;42176;43.240;27.880;2023-07-24T06:41:23;100248.66;;;38.16;31.76
56270;BME280;42176;43.240;27.880;2023-07-24T06:43:23;100263.53;;;37.95;31.78
56270;BME280;42176;43.240;27.880;2023-07-24T06:45:24;100253.75;;;38.59;32.36
56270;BME280;42176;43.240;27.880;2023-07-24T06:47:24;100252.88;;;38.65;31.84
56270;BME280;42176;43.240;27.880;2023-07-24T06:49:25;100250.94;;;38.73;32.07
56270;BME280;42176;43.240;27.880;2023-07-24T06:51:25;100245.09;;;39.08;31.09
56270;BME280;42176;43.240;27.880;2023-07-24T06:53:26;100253.00;;;38.97;30.82
56270;BME280;42176;43.240;27.880;2023-07-24T06:55:26;100246.34;;;39.12;30.60
56270;BME280;42176;43.240;27.880;2023-07-24T06:57:27;100251.34;;;39.42;30.82
56270;BME280;42176;43.240;27.880;2023-07-24T06:59:27;100246.09;;;39.66;30.83
56270;BME280;42176;43.240;27.880;2023-07-24T07:01:27;100242.69;;;39.64;31.13
56270;BME280;42176;43.240;27.880;2023-07-24T07:03:28;100241.59;;;39.65;30.00
56270;BME280;42176;43.240;27.880;2023-07-24T07:05:28;100250.13;;;39.24;28.78
56270;BME280;42176;43.240;27.880;2023-07-24T07:07:29;100243.28;;;38.75;31.08
56270;BME280;42176;43.240;27.880;2023-07-24T07:09:29;100243.41;;;39.07;31.01
56270;BME280;42176;43.240;27.880;2023-07-24T07:11:30;100244.28;;;39.01;28.84
56270;BME280;42176;43.240;27.880;2023-07-24T07:13:30;100243.16;;;38.36;29.26
56270;BME280;42176;43.240;27.880;2023-07-24T07:15:31;100241.00;;;38.51;28.25
56270;BME280;42176;43.240;27.880;2023-07-24T07:17:31;100240.53;;;38.54;28.57
56270;BME280;42176;43.240;27.880;2023-07-24T07:19:32;100236.72;;;38.42;26.98
56270;BME280;42176;43.240;27.880;2023-07-24T07:21:32;100231.41;;;38.41;26.09
56270;BME280;42176;43.240;27.880;2023-07-24T07:23:33;100243.97;;;38.10;24.92
56270;BME280;42176;43.240;27.880;2023-07-24T07:25:33;100239.28;;;38.23;24.62
56270;BME280;42176;43.240;27.880;2023-07-24T07:27:34;100243.34;;;38.07;26.80
56270;BME280;42176;43.240;27.880;2023-07-24T07:29:34;100232.91;;;38.10;25.95
56270;BME280;42176;43.240;27.880;2023-07-24T07:31:35;100234.19;;;38.47;26.91
56270;BME280;42176;43.240;27.880;2023-07-24T07:33:35;100217.59;;;38.41;27.92
56270;BME280;42176;43.240;27.880;2023-07-24T07:35:36;100224.81;;;38.42;27.78
56270;BME280;42176;43.240;27.880;2023-07-24T07:37:36;100224.38;;;38.51;29.83
56270;BME280;42176;43.240;27.880;2023-07-24T07:39:37;100228.97;;;38.78;29.30
56270;BME280;42176;43.240;27.880;2023-07-24T07:41:37;100229.69;;;38.53;29.48
56270;BME280;42176;43.240;27.880;2023-07-24T07:43:38;100220.34;;;38.41;29.60
56270;BME280;42176;43.240;27.880;2023-07-24T07:45:39;100225.44;;;38.10;30.12
56270;BME280;42176;43.240;27.880;2023-07-24T07:47:39;100233.75;;;38.23;30.10
56270;BME280;42176;43.240;27.880;2023-07-24T07:49:40;100215.00;;;38.19;29.84
56270;BME280;42176;43.240;27.880;2023-07-24T07:51:41;100220.13;;;38.22;29.66
56270;BME280;42176;43.240;27.880;2023-07-24T07:53:42;100214.59;;;38.08;30.10
56270;BME280;42176;43.240;27.880;2023-07-24T07:55:42;100208.22;;;38.01;31.23
56270;BME280;42176;43.240;27.880;2023-07-24T07:57:43;100197.13;;;37.88;31.07
56270;BME280;42176;43.240;27.880;2023-07-24T07:59:43;100191.59;;;37.81;30.63
56270;BME280;42176;43.240;27.880;2023-07-24T08:01:44;100199.25;;;38.26;30.42
56270;BME280;42176;43.240;27.880;2023-07-24T08:03:45;100203.31;;;38.17;31.01
56270;BME280;42176;43.240;27.880;2023-07-24T08:05:46;100201.16;;;38.32;30.50
56270;BME280;42176;43.240;27.880;2023-07-24T08:07:46;100203.94;;;38.26;30.97
56270;BME280;42176;43.240;27.880;2023-07-24T08:09:47;100200.09;;;38.47;30.85
56270;BME280;42176;43.240;27.880;2023-07-24T08:11:47;100203.94;;;38.19;31.17
56270;BME280;42176;43.240;27.880;2023-07-24T08:13:48;100213.72;;;37.74;32.93
56270;BME280;42176;43.240;27.880;2023-07-24T08:15:49;100213.44;;;37.42;33.10
56270;BME280;42176;43.240;27.880;2023-07-24T08:17:49;100206.47;;;37.46;33.31
56270;BME280;42176;43.240;27.880;2023-07-24T08:19:50;100200.56;;;37.01;34.15
56270;BME280;42176;43.240;27.880;2023-07-24T08:21:50;100204.84;;;36.75;34.03
56270;BME280;42176;43.240;27.880;2023-07-24T08:23:51;100212.97;;;36.83;34.03
56270;BME280;42176;43.240;27.880;2023-07-24T08:25:53;100205.53;;;36.42;34.60
56270;BME280;42176;43.240;27.880;2023-07-24T08:27:53;100197.38;;;36.34;33.82
56270;BME280;42176;43.240;27.880;2023-07-24T08:29:54;100201.28;;;35.46;34.58
56270;BME280;42176;43.240;27.880;2023-07-24T08:31:54;100205.75;;;36.12;32.32
56270;BME280;42176;43.240;27.880;2023-07-24T08:33:55;100201.53;;;35.73;33.50
56270;BME280;42176;43.240;27.880;2023-07-24T08:36:02;100204.03;;;35.67;32.72
56270;BME280;42176;43.240;27.880;2023-07-24T08:38:03;100198.88;;;35.58;32.34
56270;BME280;42176;43.240;27.880;2023-07-24T08:40:04;100199.06;;;35.78;31.96
56270;BME280;42176;43.240;27.880;2023-07-24T08:42:12;100194.00;;;35.81;33.12
56270;BME280;42176;43.240;27.880;2023-07-24T08:44:13;100180.16;;;35.96;33.03
56270;BME280;42176;43.240;27.880;2023-07-24T08:46:14;100189.19;;;36.12;35.08
56270;BME280;42176;43.240;27.880;2023-07-24T08:48:15;100189.06;;;35.77;33.88
56270;BME280;42176;43.240;27.880;2023-07-24T08:50:16;100183.78;;;35.54;34.33
56270;BME280;42176;43.240;27.880;2023-07-24T08:52:17;100181.69;;;35.41;34.90
56270;BME280;42176;43.240;27.880;2023-07-24T08:54:19;100174.63;;;35.53;34.67
56270;BME280;42176;43.240;27.880;2023-07-24T08:56:20;100183.69;;;35.69;34.62
56270;BME280;42176;43.240;27.880;2023-07-24T08:58:20;100175.06;;;35.50;35.01
56270;BME280;42176;43.240;27.880;2023-07-24T09:00:21;100179.09;;;35.32;34.40
56270;BME280;42176;43.240;27.880;2023-07-24T09:02:21;100172.94;;;35.15;34.58
56270;BME280;42176;43.240;27.880;2023-07-24T09:04:22;100181.19;;;35.30;32.83
56270;BME280;42176;43.240;27.880;2023-07-24T09:06:22;100190.06;;;35.11;32.98
56270;BME280;42176;43.240;27.880;2023-07-24T09:08:36;100180.47;;;35.06;35.40
56270;BME280;42176;43.240;27.880;2023-07-24T09:10:36;100177.69;;;34.55;34.80
56270;BME280;42176;43.240;27.880;2023-07-24T09:12:37;100172.59;;;33.98;36.92
56270;BME280;42176;43.240;27.880;2023-07-24T09:14:38;100184.25;;;33.77;37.15
56270;BME280;42176;43.240;27.880;2023-07-24T09:16:39;100184.75;;;33.58;37.57
56270;BME280;42176;43.240;27.880;2023-07-24T09:18:40;100179.81;;;33.76;37.83
56270;BME280;42176;43.240;27.880;2023-07-24T09:20:42;100180.91;;;33.44;37.67
56270;BME280;42176;43.240;27.880;2023-07-24T09:22:50;100184.44;;;32.89;38.52
56270;BME280;42176;43.240;27.880;2023-07-24T09:24:55;100184.34;;;32.66;40.06
56270;BME280;42176;43.240;27.880;2023-07-24T09:26:56;100183.75;;;31.40;40.67
56270;BME280;42176;43.240;27.880;2023-07-24T09:28:56;100188.88;;;30.83;43.05
56270;BME280;42176;43.240;27.880;2023-07-24T09:30:57;100191.72;;;30.13;43.99
56270;BME280;42176;43.240;27.880;2023-07-24T09:32:58;100185.53;;;29.66;48.82
56270;BME280;42176;43.240;27.880;2023-07-24T09:34:59;100189.09;;;29.02;49.40
56270;BME280;42176;43.240;27.880;2023-07-24T09:36:59;100188.53;;;28.33;53.27
56270;BME280;42176;43.240;27.880;2023-07-24T09:39:00;100192.34;;;28.88;55.73
56270;BME280;42176;43.240;27.880;2023-07-24T09:41:02;100185.38;;;29.04;53.43
56270;BME280;42176;43.240;27.880;2023-07-24T09:45:19;100174.34;;;29.23;54.80
56270;BME280;42176;43.240;27.880;2023-07-24T09:47:20;100171.09;;;29.38;48.82
56270;BME280;42176;43.240;27.880;2023-07-24T09:49:20;100177.09;;;28.95;53.62
56270;BME280;42176;43.240;27.880;2023-07-24T09:51:21;100167.63;;;28.04;52.07
56270;BME280;42176;43.240;27.880;2023-07-24T09:53:24;100175.84;;;27.65;53.52
56270;BME280;42176;43.240;27.880;2023-07-24T09:55:39;100168.41;;;28.34;55.30
56270;BME280;42176;43.240;27.880;2023-07-24T09:57:45;100167.41;;;27.58;54.50
56270;BME280;42176;43.240;27.880;2023-07-24T09:59:45;100155.63;;;27.58;56.30
56270;BME280;42176;43.240;27.880;2023-07-24T10:01:47;100149.34;;;27.57;56.76
56270;BME280;42176;43.240;27.880;2023-07-24T10:03:49;100159.06;;;27.89;59.25
56270;BME280;42176;43.240;27.880;2023-07-24T10:05:50;100152.78;;;27.69;57.32
56270;BME280;42176;43.240;27.880;2023-07-24T10:07:54;100160.22;;;27.47;57.88
56270;BME280;42176;43.240;27.880;2023-07-24T10:09:55;100159.63;;;27.34;59.74
56270;BME280;42176;43.240;27.880;2023-07-24T10:11:57;100151.06;;;27.48;54.83
56270;BME280;42176;43.240;27.880;2023-07-24T10:13:58;100151.47;;;27.73;57.31
56270;BME280;42176;43.240;27.880;2023-07-24T10:15:58;100163.03;;;28.05;56.71
56270;BME280;42176;43.240;27.880;2023-07-24T10:18:03;100149.00;;;28.09;59.14
56270;BME280;42176;43.240;27.880;2023-07-24T10:20:11;100145.28;;;28.10;54.89
56270;BME280;42176;43.240;27.880;2023-07-24T10:22:18;100127.13;;;27.62;51.91
56270;BME280;42176;43.240;27.880;2023-07-24T10:24:19;100130.13;;;27.49;60.85
56270;BME280;42176;43.240;27.880;2023-07-24T10:26:25;100140.69;;;27.03;61.22